^^
Meteo Knjazevac Station Historical Data
Daily Summary for April 10, 2021 Units:  Both    English   Metric
Daily Weekly Monthly Yearly Custom
  High: Low: Average:
Temperature: 32.9 °F /  0.5 °C 31.6 °F /  -0.2 °C 32.1 °F /  0.1 °C
Dew Point: 32.7 °F /  0.4 °C 31.4 °F /  -0.3 °C 31.9 °F /  -0.1 °C
Humidity: 99% 99% 99%
Wind Speed: 2mph /  3.2km/h - 0.6mph /  1km/h
Wind Gust: 7mph /  11.3km/h - -
Wind- - South
Pressure: 30.17 in /  1021.6 hPa 30.12 in /  1019.9 hPa -
Precipitation: 0.00 in /  0 mm    
Historical Graphs
 
 
Tabular Data for April 10, 2021
Time Temperature Dew Point Pressure Wind Wind Speed Wind Gust Humidity Rainfall Rate (Hourly) solar Conditions
00:00 32.4 °F /  0.2 °C 32.1 °F /  0.1 °C 30.14in /  1020.5hPa NW 1mph /  1.6km/h 2mph /  3.2km/h 99% 0.00in /  0mm 0 W/m2
00:10 32.4 °F /  0.2 °C 32.1 °F /  0.1 °C 30.13in /  1020.2hPa SE 1mph /  1.6km/h 4mph /  6.4km/h 99% 0.00in /  0mm 0 W/m2
00:20 32.4 °F /  0.2 °C 32.1 °F /  0.1 °C 30.13in /  1020.2hPa ESE 1mph /  1.6km/h 5mph /  8km/h 99% 0.00in /  0mm 0 W/m2
00:30 32.4 °F /  0.2 °C 32.1 °F /  0.1 °C 30.13in /  1020.2hPa Calm   5mph /  8km/h 99% 0.00in /  0mm 0 W/m2
00:40 32.2 °F /  0.1 °C 31.9 °F /  -0.1 °C 30.13in /  1020.2hPa North 1mph /  1.6km/h 4mph /  6.4km/h 99% 0.00in /  0mm 0 W/m2
00:50 32.2 °F /  0.1 °C 31.9 °F /  -0.1 °C 30.13in /  1020.2hPa NE 1mph /  1.6km/h 3mph /  4.8km/h 99% 0.00in /  0mm 0 W/m2
01:00 32.2 °F /  0.1 °C 31.9 °F /  -0.1 °C 30.12in /  1019.9hPa NNE 2mph /  3.2km/h 6mph /  9.7km/h 99% 0.00in /  0mm 0 W/m2
01:10 32.2 °F /  0.1 °C 31.9 °F /  -0.1 °C 30.12in /  1019.9hPa NNE 1mph /  1.6km/h 5mph /  8km/h 99% 0.00in /  0mm 0 W/m2
01:20 32.2 °F /  0.1 °C 31.9 °F /  -0.1 °C 30.12in /  1019.9hPa Calm   3mph /  4.8km/h 99% 0.00in /  0mm 0 W/m2
01:30 32.2 °F /  0.1 °C 31.9 °F /  -0.1 °C 30.13in /  1020.2hPa NW 1mph /  1.6km/h 4mph /  6.4km/h 99% 0.00in /  0mm 0 W/m2
01:40 32.2 °F /  0.1 °C 31.9 °F /  -0.1 °C 30.12in /  1019.9hPa South 1mph /  1.6km/h 3mph /  4.8km/h 99% 0.00in /  0mm 0 W/m2
01:50 32.2 °F /  0.1 °C 31.9 °F /  -0.1 °C 30.13in /  1020.2hPa Calm   2mph /  3.2km/h 99% 0.00in /  0mm 0 W/m2
02:00 32.2 °F /  0.1 °C 31.9 °F /  -0.1 °C 30.12in /  1019.9hPa Calm   3mph /  4.8km/h 99% 0.00in /  0mm 0 W/m2
02:10 32.2 °F /  0.1 °C 31.9 °F /  -0.1 °C 30.13in /  1020.2hPa NNE 1mph /  1.6km/h 5mph /  8km/h 99% 0.00in /  0mm 0 W/m2
02:20 32.1 °F /  0.1 °C 31.9 °F /  -0.1 °C 30.13in /  1020.2hPa Calm   3mph /  4.8km/h 99% 0.00in /  0mm 0 W/m2
02:30 32.2 °F /  0.1 °C 31.9 °F /  -0.1 °C 30.13in /  1020.2hPa North 1mph /  1.6km/h 4mph /  6.4km/h 99% 0.00in /  0mm 0 W/m2
02:40 32.2 °F /  0.1 °C 31.9 °F /  -0.1 °C 30.13in /  1020.2hPa NNE 1mph /  1.6km/h 5mph /  8km/h 99% 0.00in /  0mm 0 W/m2
02:50 32 °F /  0 °C 31.8 °F /  -0.1 °C 30.13in /  1020.2hPa Calm   4mph /  6.4km/h 99% 0.00in /  0mm 0 W/m2
03:00 32.2 °F /  0.1 °C 31.9 °F /  -0.1 °C 30.13in /  1020.2hPa North 1mph /  1.6km/h 4mph /  6.4km/h 99% 0.00in /  0mm 0 W/m2
03:10 32 °F /  0 °C 31.8 °F /  -0.1 °C 30.13in /  1020.2hPa NNE 2mph /  3.2km/h 4mph /  6.4km/h 99% 0.00in /  0mm 0 W/m2
03:20 32 °F /  0 °C 31.8 °F /  -0.1 °C 30.13in /  1020.2hPa North 1mph /  1.6km/h 4mph /  6.4km/h 99% 0.00in /  0mm 0 W/m2
03:30 32 °F /  0 °C 31.8 °F /  -0.1 °C 30.12in /  1019.9hPa ENE 1mph /  1.6km/h 3mph /  4.8km/h 99% 0.00in /  0mm 0 W/m2
03:40 32 °F /  0 °C 31.8 °F /  -0.1 °C 30.13in /  1020.2hPa NW 1mph /  1.6km/h 3mph /  4.8km/h 99% 0.00in /  0mm 0 W/m2
03:50 32 °F /  0 °C 31.8 °F /  -0.1 °C 30.13in /  1020.2hPa NW 2mph /  3.2km/h 7mph /  11.3km/h 99% 0.00in /  0mm 0 W/m2
04:00 31.8 °F /  -0.1 °C 31.6 °F /  -0.2 °C 30.14in /  1020.5hPa WNW 2mph /  3.2km/h 3mph /  4.8km/h 99% 0.00in /  0mm 0 W/m2
04:10 32 °F /  0 °C 31.8 °F /  -0.1 °C 30.13in /  1020.2hPa North 1mph /  1.6km/h 3mph /  4.8km/h 99% 0.00in /  0mm 0 W/m2
04:20 31.8 °F /  -0.1 °C 31.6 °F /  -0.2 °C 30.14in /  1020.5hPa North 1mph /  1.6km/h 2mph /  3.2km/h 99% 0.00in /  0mm 0 W/m2
04:30 31.8 °F /  -0.1 °C 31.6 °F /  -0.2 °C 30.14in /  1020.5hPa Calm   2mph /  3.2km/h 99% 0.00in /  0mm 0 W/m2
04:40 31.8 °F /  -0.1 °C 31.6 °F /  -0.2 °C 30.14in /  1020.5hPa Calm   2mph /  3.2km/h 99% 0.00in /  0mm 0 W/m2
04:50 31.8 °F /  -0.1 °C 31.6 °F /  -0.2 °C 30.14in /  1020.5hPa Calm   3mph /  4.8km/h 99% 0.00in /  0mm 0 W/m2
05:00 31.8 °F /  -0.1 °C 31.6 °F /  -0.2 °C 30.14in /  1020.5hPa North 1mph /  1.6km/h 2mph /  3.2km/h 99% 0.00in /  0mm 0 W/m2
05:10 31.8 °F /  -0.1 °C 31.6 °F /  -0.2 °C 30.14in /  1020.5hPa Calm   3mph /  4.8km/h 99% 0.00in /  0mm 0 W/m2
05:20 31.8 °F /  -0.1 °C 31.6 °F /  -0.2 °C 30.14in /  1020.5hPa Calm   4mph /  6.4km/h 99% 0.00in /  0mm 0 W/m2
05:30 31.8 °F /  -0.1 °C 31.6 °F /  -0.2 °C 30.14in /  1020.5hPa NNE 1mph /  1.6km/h 3mph /  4.8km/h 99% 0.00in /  0mm 0 W/m2
05:40 31.6 °F /  -0.2 °C 31.4 °F /  -0.3 °C 30.14in /  1020.5hPa North 1mph /  1.6km/h 4mph /  6.4km/h 99% 0.00in /  0mm 0 W/m2
05:50 31.6 °F /  -0.2 °C 31.4 °F /  -0.3 °C 30.14in /  1020.5hPa Calm   4mph /  6.4km/h 99% 0.00in /  0mm 0 W/m2
06:00 31.6 °F /  -0.2 °C 31.4 °F /  -0.3 °C 30.14in /  1020.5hPa North 1mph /  1.6km/h 3mph /  4.8km/h 99% 0.00in /  0mm 0 W/m2
06:10 31.6 °F /  -0.2 °C 31.4 °F /  -0.3 °C 30.14in /  1020.5hPa NNE 1mph /  1.6km/h 2mph /  3.2km/h 99% 0.00in /  0mm 0 W/m2
06:20 31.6 °F /  -0.2 °C 31.4 °F /  -0.3 °C 30.14in /  1020.5hPa NE 1mph /  1.6km/h 2mph /  3.2km/h 99% 0.00in /  0mm 0 W/m2
06:30 31.6 °F /  -0.2 °C 31.4 °F /  -0.3 °C 30.14in /  1020.5hPa North 1mph /  1.6km/h 3mph /  4.8km/h 99% 0.00in /  0mm 0 W/m2
06:40 31.6 °F /  -0.2 °C 31.4 °F /  -0.3 °C 30.15in /  1020.9hPa Calm   2mph /  3.2km/h 99% 0.00in /  0mm 0 W/m2
06:50 31.6 °F /  -0.2 °C 31.4 °F /  -0.3 °C 30.14in /  1020.5hPa Calm   5mph /  8km/h 99% 0.00in /  0mm 0 W/m2
07:00 31.6 °F /  -0.2 °C 31.4 °F /  -0.3 °C 30.14in /  1020.5hPa Calm   2mph /  3.2km/h 99% 0.00in /  0mm 0 W/m2
07:10 31.6 °F /  -0.2 °C 31.4 °F /  -0.3 °C 30.14in /  1020.5hPa Calm   2mph /  3.2km/h 99% 0.00in /  0mm 1 W/m2
07:20 31.6 °F /  -0.2 °C 31.4 °F /  -0.3 °C 30.14in /  1020.5hPa WSW 1mph /  1.6km/h 2mph /  3.2km/h 99% 0.00in /  0mm 1 W/m2
07:30 31.6 °F /  -0.2 °C 31.4 °F /  -0.3 °C 30.14in /  1020.5hPa SW 1mph /  1.6km/h 2mph /  3.2km/h 99% 0.00in /  0mm 3 W/m2
07:40 31.6 °F /  -0.2 °C 31.4 °F /  -0.3 °C 30.15in /  1020.9hPa West 1mph /  1.6km/h 2mph /  3.2km/h 99% 0.00in /  0mm 2 W/m2
07:50 31.6 °F /  -0.2 °C 31.4 °F /  -0.3 °C 30.15in /  1020.9hPa WSW 1mph /  1.6km/h 3mph /  4.8km/h 99% 0.00in /  0mm 4 W/m2
08:00 31.8 °F /  -0.1 °C 31.6 °F /  -0.2 °C 30.16in /  1021.2hPa WSW 1mph /  1.6km/h 2mph /  3.2km/h 99% 0.00in /  0mm 7 W/m2
08:10 31.8 °F /  -0.1 °C 31.6 °F /  -0.2 °C 30.16in /  1021.2hPa Calm   2mph /  3.2km/h 99% 0.00in /  0mm 7 W/m2
08:20 31.8 °F /  -0.1 °C 31.6 °F /  -0.2 °C 30.16in /  1021.2hPa Calm   2mph /  3.2km/h 99% 0.00in /  0mm 12 W/m2
08:30 31.8 °F /  -0.1 °C 31.6 °F /  -0.2 °C 30.16in /  1021.2hPa Calm   3mph /  4.8km/h 99% 0.00in /  0mm 15 W/m2
08:40 32 °F /  0 °C 31.8 °F /  -0.1 °C 30.16in /  1021.2hPa Calm   2mph /  3.2km/h 99% 0.00in /  0mm 13 W/m2
08:50 32 °F /  0 °C 31.8 °F /  -0.1 °C 30.17in /  1021.6hPa WSW 1mph /  1.6km/h 2mph /  3.2km/h 99% 0.00in /  0mm 16 W/m2
09:00 32 °F /  0 °C 31.8 °F /  -0.1 °C 30.17in /  1021.6hPa SW 1mph /  1.6km/h 2mph /  3.2km/h 99% 0.00in /  0mm 14 W/m2
09:10 32 °F /  0 °C 31.8 °F /  -0.1 °C 30.17in /  1021.6hPa WSW 1mph /  1.6km/h 2mph /  3.2km/h 99% 0.00in /  0mm 18 W/m2
09:20 32.2 °F /  0.1 °C 31.9 °F /  -0.1 °C 30.17in /  1021.6hPa Calm   2mph /  3.2km/h 99% 0.00in /  0mm 23 W/m2
09:30 32.2 °F /  0.1 °C 31.9 °F /  -0.1 °C 30.17in /  1021.6hPa SW 1mph /  1.6km/h 2mph /  3.2km/h 99% 0.00in /  0mm 17 W/m2
09:40 32.2 °F /  0.1 °C 31.9 °F /  -0.1 °C 30.17in /  1021.6hPa Calm   1mph /  1.6km/h 99% 0.00in /  0mm 21 W/m2
09:50 32.4 °F /  0.2 °C 32.1 °F /  0.1 °C 30.17in /  1021.6hPa SW 1mph /  1.6km/h 2mph /  3.2km/h 99% 0.00in /  0mm 18 W/m2
10:00 32.4 °F /  0.2 °C 32.1 °F /  0.1 °C 30.17in /  1021.6hPa Calm   2mph /  3.2km/h 99% 0.00in /  0mm 19 W/m2
10:10 32.4 °F /  0.2 °C 32.1 °F /  0.1 °C 30.17in /  1021.6hPa Calm   2mph /  3.2km/h 99% 0.00in /  0mm 23 W/m2
10:20 32.4 °F /  0.2 °C 32.1 °F /  0.1 °C 30.17in /  1021.6hPa WSW 1mph /  1.6km/h 2mph /  3.2km/h 99% 0.00in /  0mm 20 W/m2
10:30 32.5 °F /  0.3 °C 32.3 °F /  0.2 °C 30.16in /  1021.2hPa Calm   2mph /  3.2km/h 99% 0.00in /  0mm 25 W/m2
10:40 32.5 °F /  0.3 °C 32.3 °F /  0.2 °C 30.15in /  1020.9hPa Calm   2mph /  3.2km/h 99% 0.00in /  0mm 27 W/m2
10:50 32.5 °F /  0.3 °C 32.3 °F /  0.2 °C 30.15in /  1020.9hPa WSW 1mph /  1.6km/h 2mph /  3.2km/h 99% 0.00in /  0mm 19 W/m2
11:00 32.5 °F /  0.3 °C 32.3 °F /  0.2 °C 30.15in /  1020.9hPa Calm   2mph /  3.2km/h 99% 0.00in /  0mm 21 W/m2
11:10 32.5 °F /  0.3 °C 32.3 °F /  0.2 °C 30.15in /  1020.9hPa Calm   2mph /  3.2km/h 99% 0.00in /  0mm 24 W/m2
11:20 32.5 °F /  0.3 °C 32.3 °F /  0.2 °C 30.15in /  1020.9hPa Calm   2mph /  3.2km/h 99% 0.00in /  0mm 32 W/m2
11:30 32.8 °F /  0.4 °C 32.6 °F /  0.3 °C 30.15in /  1020.9hPa West 1mph /  1.6km/h 2mph /  3.2km/h 99% 0.00in /  0mm 22 W/m2
11:40 32.8 °F /  0.4 °C 32.6 °F /  0.3 °C 30.14in /  1020.5hPa Calm   2mph /  3.2km/h 99% 0.00in /  0mm 26 W/m2
11:50 32.9 °F /  0.5 °C 32.7 °F /  0.4 °C 30.14in /  1020.5hPa Calm   2mph /  3.2km/h 99% 0.00in /  0mm 23 W/m2
12:00 32.9 °F /  0.5 °C 32.7 °F /  0.4 °C 30.14in /  1020.5hPa NNW 1mph /  1.6km/h 2mph /  3.2km/h 99% 0.00in /  0mm 25 W/m2
12:10 32.9 °F /  0.5 °C 32.7 °F /  0.4 °C 30.14in /  1020.5hPa WSW 1mph /  1.6km/h 2mph /  3.2km/h 99% 0.00in /  0mm 17 W/m2
12:20 32.9 °F /  0.5 °C 32.7 °F /  0.4 °C 30.14in /  1020.5hPa Calm   2mph /  3.2km/h 99% 0.00in /  0mm 22 W/m2
12:30 32.9 °F /  0.5 °C 32.7 °F /  0.4 °C 30.13in /  1020.2hPa Calm   2mph /  3.2km/h 99% 0.00in /  0mm 21 W/m2
12:40 32.9 °F /  0.5 °C 32.7 °F /  0.4 °C 30.13in /  1020.2hPa Calm   2mph /  3.2km/h 99% 0.00in /  0mm 21 W/m2
Knjazevac, Serbia
Compliments of Weather Underground - 2 mb